Strona główna
METAR-TAF:

METAR-TAF

Lotnisko :

Meiringen, Szwajcaria

Szerokość geograficzna: 46-44-25N, Długość geograficzna: 8-06-36E, wysokość: 577 m

Aktualna obserwacja pogody

Raport powstał 15 minut temu, godzina 11:50 UTC
Wiatr 3 kt od południowy zachód, zmienny między południe i zachód
Temperatura 6°C
Wilgotność 87%
Ciśnienie 1009 hPa
Widzialność 10 km lub więcej
Mało chmury na wysokości 1400 ft
Przerywane chmury na wysokości 2000 ft
Zachmurzenie całkowite na wysokości 3200 ft
słaby deszcz

METAR: LSMM 261150Z AUTO 23003KT 170V260 9999NDV -RA FEW014 BKN020 OVC032 06/04 Q1009 RERA RMK

czas: 13:05 (12:05 UTC)


TAF: brakujący

Obserwacja i prognoza pogody dla ponad 4000 lotnisk (raport METAR i TAF).

Dostępne stacje oznaczono żółtymi i czerwonymi punktami na mapie.

Najedź kursorem aby zobaczyć nazwę stacji.

Kliknij aby zobaczyć obserwacje i prognozy pogody.

Aby zmienić mapę: kliknij na zielony przycisk z czarnym krzyżykiem, aby powiększyć; na zielony przycisk z myślnikiem, aby pomniejszyć; na zielone strzałki, aby przejść do map sąsiednich.


METAR-TAF: